Buckingham, Texas
Current Conditions -  °F | °C
As of 5:55 AM on Sunday 23 Nov 2014 (Local Time) from KADS Reporting Station
Moderate Fog Moderate Fog  
Wind Chill: 57°   Ceiling: 300
Heat Index: 57°   Visibility: 0.25mi
Dew Point: 55°   Wind: 7mph
Humidity: 94%   Direction: 150°SSE
Pressure: 29.58"   Gusts: NA
Location:  32.9743°N, 96.7425°W
Report Text: KADS 231155Z 15006KT 1/4SM FG OVC003 14/13 A2958
Loading
Personal Weather Stations






























Interactive Weather Map New forecast layout! Learn more

10-Day Weather Forecast

Advertisements
Track Severe Weather on mobile